Time,TemperatureF,DewpointF,PressureIn,WindDirection,WindDirectionDegrees,WindSpeedMPH,WindSpeedGustMPH,Humidity,HourlyPrecipIn,Conditions,Clouds,dailyrainin,SoftwareType,DateUTC
2013-02-25 00:11:00,14.0,11.0,-100.00,SSW,198,2.0,5.0,89,0.00,,,0.00,,2013-02-25 07:11:00,
2013-02-25 00:21:00,14.0,11.0,-100.00,SSW,198,2.0,5.0,89,0.00,,,0.00,,2013-02-25 07:21:00,
2013-02-25 00:31:00,14.0,11.0,-100.00,SSW,198,2.0,5.0,89,0.00,,,0.00,,2013-02-25 07:31:00,
2013-02-25 00:41:00,14.0,11.0,-100.00,SSW,198,2.0,5.0,89,0.00,,,0.00,,2013-02-25 07:41:00,
2013-02-25 00:51:00,14.0,11.0,-100.00,SSW,198,2.0,5.0,89,0.00,,,0.00,,2013-02-25 07:51:00,
2013-02-25 01:21:00,14.0,11.0,-100.00,SSE,164,2.0,4.0,89,0.00,,,0.00,,2013-02-25 08:21:00,
2013-02-25 01:31:00,14.0,11.0,-100.00,SSE,164,2.0,4.0,89,0.00,,,0.00,,2013-02-25 08:31:00,
2013-02-25 01:41:00,14.0,11.0,-100.00,SSE,164,2.0,4.0,89,0.00,,,0.00,,2013-02-25 08:41:00,
2013-02-25 01:52:00,14.0,11.0,-100.00,SSE,164,2.0,4.0,89,0.00,,,0.00,,2013-02-25 08:52:00,
2013-02-25 02:21:00,14.0,11.0,-100.00,NNW,344,0.0,0.0,89,0.00,,,0.00,,2013-02-25 09:21:00,
2013-02-25 02:31:00,14.0,11.0,-100.00,NNW,344,0.0,0.0,89,0.00,,,0.00,,2013-02-25 09:31:00,
2013-02-25 02:41:00,14.0,11.0,-100.00,NNW,344,0.0,0.0,89,0.00,,,0.00,,2013-02-25 09:41:00,
2013-02-25 02:51:00,14.0,11.0,-100.00,NNW,344,0.0,0.0,89,0.00,,,0.00,,2013-02-25 09:51:00,
2013-02-25 03:21:00,14.0,11.0,-100.00,West,274,1.0,2.0,88,0.00,,,0.00,,2013-02-25 10:21:00,
2013-02-25 03:31:00,14.0,11.0,-100.00,West,274,1.0,2.0,88,0.00,,,0.00,,2013-02-25 10:31:00,
2013-02-25 03:41:00,14.0,11.0,-100.00,West,274,1.0,2.0,88,0.00,,,0.00,,2013-02-25 10:41:00,
2013-02-25 03:52:00,14.0,11.0,-100.00,West,274,1.0,2.0,88,0.00,,,0.00,,2013-02-25 10:52:00,
2013-02-25 04:11:00,14.0,10.0,-100.00,WNW,283,2.0,5.0,86,0.00,,,0.00,,2013-02-25 11:11:00,
2013-02-25 04:21:00,14.0,10.0,-100.00,WNW,283,2.0,5.0,86,0.00,,,0.00,,2013-02-25 11:21:00,
2013-02-25 04:32:00,14.0,10.0,-100.00,WNW,283,2.0,5.0,86,0.00,,,0.00,,2013-02-25 11:32:00,
2013-02-25 04:42:00,14.0,10.0,-100.00,WNW,283,2.0,5.0,86,0.00,,,0.00,,2013-02-25 11:42:00,
2013-02-25 04:52:00,14.0,10.0,-100.00,WNW,283,2.0,5.0,86,0.00,,,0.00,,2013-02-25 11:52:00,
2013-02-25 05:11:00,13.0,10.0,-100.00,West,269,2.0,4.0,87,0.00,,,0.00,,2013-02-25 12:11:00,
2013-02-25 05:21:00,13.0,10.0,-100.00,West,269,2.0,4.0,87,0.00,,,0.00,,2013-02-25 12:21:00,
2013-02-25 05:32:00,13.0,10.0,-100.00,West,269,2.0,4.0,87,0.00,,,0.00,,2013-02-25 12:32:00,
2013-02-25 05:42:00,13.0,10.0,-100.00,West,269,2.0,4.0,87,0.00,,,0.00,,2013-02-25 12:42:00,
2013-02-25 05:53:00,13.0,10.0,-100.00,West,269,2.0,4.0,87,0.00,,,0.00,,2013-02-25 12:53:00,
2013-02-25 06:12:00,13.0,10.0,-100.00,WSW,240,1.0,1.0,87,0.00,,,0.00,,2013-02-25 13:12:00,
2013-02-25 06:22:00,13.0,10.0,-100.00,WSW,240,1.0,1.0,87,0.00,,,0.00,,2013-02-25 13:22:00,
2013-02-25 06:31:00,13.0,10.0,-100.00,WSW,240,1.0,1.0,87,0.00,,,0.00,,2013-02-25 13:31:00,
2013-02-25 06:41:00,13.0,10.0,-100.00,WSW,240,1.0,1.0,87,0.00,,,0.00,,2013-02-25 13:41:00,
2013-02-25 06:51:00,13.0,10.0,-100.00,WSW,240,1.0,1.0,87,0.00,,,0.00,,2013-02-25 13:51:00,
2013-02-25 07:16:00,14.0,10.0,-100.00,WSW,239,2.0,4.0,86,0.00,,,0.00,,2013-02-25 14:16:00,
2013-02-25 07:21:00,14.0,10.0,-100.00,WSW,239,2.0,4.0,86,0.00,,,0.00,,2013-02-25 14:21:00,
2013-02-25 07:31:00,14.0,10.0,-100.00,WSW,239,2.0,4.0,86,0.00,,,0.00,,2013-02-25 14:31:00,
2013-02-25 07:41:00,14.0,10.0,-100.00,WSW,239,2.0,4.0,86,0.00,,,0.00,,2013-02-25 14:41:00,
2013-02-25 07:52:00,14.0,10.0,-100.00,WSW,239,2.0,4.0,86,0.00,,,0.00,,2013-02-25 14:52:00,
2013-02-25 08:11:00,15.0,10.0,-100.00,SW,231,4.0,6.0,83,0.00,,,0.00,,2013-02-25 15:11:00,
2013-02-25 08:21:00,15.0,10.0,-100.00,SW,231,4.0,6.0,83,0.00,,,0.00,,2013-02-25 15:21:00,
2013-02-25 08:32:00,15.0,10.0,-100.00,SW,231,4.0,6.0,83,0.00,,,0.00,,2013-02-25 15:32:00,
2013-02-25 08:41:00,15.0,10.0,-100.00,SW,231,4.0,6.0,83,0.00,,,0.00,,2013-02-25 15:41:00,
2013-02-25 08:51:00,15.0,10.0,-100.00,SW,231,4.0,6.0,83,0.00,,,0.00,,2013-02-25 15:51:00,
2013-02-25 09:21:00,15.0,11.0,-100.00,WSW,248,1.0,2.0,82,0.00,,,0.00,,2013-02-25 16:21:00,
2013-02-25 09:31:00,15.0,11.0,-100.00,WSW,248,1.0,2.0,82,0.00,,,0.00,,2013-02-25 16:31:00,
2013-02-25 09:41:00,15.0,11.0,-100.00,WSW,248,1.0,2.0,82,0.00,,,0.00,,2013-02-25 16:41:00,
2013-02-25 09:51:00,15.0,11.0,-100.00,WSW,248,1.0,2.0,82,0.00,,,0.00,,2013-02-25 16:51:00,
2013-02-25 10:11:00,17.0,12.0,-100.00,WSW,238,5.0,7.0,80,0.00,,,0.00,,2013-02-25 17:11:00,
2013-02-25 10:21:00,17.0,12.0,-100.00,WSW,238,5.0,7.0,80,0.00,,,0.00,,2013-02-25 17:21:00,
2013-02-25 10:31:00,17.0,12.0,-100.00,WSW,238,5.0,7.0,80,0.00,,,0.00,,2013-02-25 17:31:00,
2013-02-25 10:41:00,17.0,12.0,-100.00,WSW,238,5.0,7.0,80,0.00,,,0.00,,2013-02-25 17:41:00,
2013-02-25 10:51:00,17.0,12.0,-100.00,WSW,238,5.0,7.0,80,0.00,,,0.00,,2013-02-25 17:51:00,
2013-02-25 11:12:00,20.0,14.0,-100.00,SSW,199,5.0,8.0,78,0.00,,,0.00,,2013-02-25 18:12:00,
2013-02-25 11:21:00,20.0,14.0,-100.00,SSW,199,5.0,8.0,78,0.00,,,0.00,,2013-02-25 18:21:00,
2013-02-25 11:32:00,20.0,14.0,-100.00,SSW,199,5.0,8.0,78,0.00,,,0.00,,2013-02-25 18:32:00,
2013-02-25 11:41:00,20.0,14.0,-100.00,SSW,199,5.0,8.0,78,0.00,,,0.00,,2013-02-25 18:41:00,
2013-02-25 11:51:00,20.0,14.0,-100.00,SSW,199,5.0,8.0,78,0.00,,,0.00,,2013-02-25 18:51:00,
2013-02-25 12:11:00,22.0,15.0,-100.00,SSW,200,5.0,9.0,75,0.00,,,0.00,,2013-02-25 19:11:00,
2013-02-25 12:21:00,22.0,15.0,-100.00,SSW,200,5.0,9.0,75,0.00,,,0.00,,2013-02-25 19:21:00,
2013-02-25 12:31:00,22.0,15.0,-100.00,SSW,200,5.0,9.0,75,0.00,,,0.00,,2013-02-25 19:31:00,
2013-02-25 12:41:00,22.0,15.0,-100.00,SSW,200,5.0,9.0,75,0.00,,,0.00,,2013-02-25 19:41:00,
2013-02-25 12:52:00,22.0,15.0,-100.00,SSW,200,5.0,9.0,75,0.00,,,0.00,,2013-02-25 19:52:00,
2013-02-25 13:11:00,23.0,16.0,-100.00,SW,218,7.0,12.0,73,0.00,,,0.00,,2013-02-25 20:11:00,
2013-02-25 13:21:00,23.0,16.0,-100.00,SW,218,7.0,12.0,73,0.00,,,0.00,,2013-02-25 20:21:00,
2013-02-25 13:31:00,23.0,16.0,-100.00,SW,218,7.0,12.0,73,0.00,,,0.00,,2013-02-25 20:31:00,
2013-02-25 13:41:00,23.0,16.0,-100.00,SW,218,7.0,12.0,73,0.00,,,0.00,,2013-02-25 20:41:00,
2013-02-25 13:52:00,23.0,16.0,-100.00,SW,218,7.0,12.0,73,0.00,,,0.00,,2013-02-25 20:52:00,
2013-02-25 14:11:00,24.0,16.0,-100.00,SW,216,8.0,13.0,70,0.00,,,0.00,,2013-02-25 21:11:00,
2013-02-25 14:21:00,24.0,16.0,-100.00,SW,216,8.0,13.0,70,0.00,,,0.00,,2013-02-25 21:21:00,
2013-02-25 14:31:00,24.0,16.0,-100.00,SW,216,8.0,13.0,70,0.00,,,0.00,,2013-02-25 21:31:00,
2013-02-25 14:41:00,24.0,16.0,-100.00,SW,216,8.0,13.0,70,0.00,,,0.00,,2013-02-25 21:41:00,
2013-02-25 14:51:00,24.0,16.0,-100.00,SW,216,8.0,13.0,70,0.00,,,0.00,,2013-02-25 21:51:00,
2013-02-25 15:11:00,23.0,14.0,-100.00,SW,220,8.0,15.0,67,0.00,,,0.00,,2013-02-25 22:11:00,
2013-02-25 15:21:00,23.0,14.0,-100.00,SW,220,8.0,15.0,67,0.00,,,0.00,,2013-02-25 22:21:00,
2013-02-25 15:31:00,23.0,14.0,-100.00,SW,220,8.0,15.0,67,0.00,,,0.00,,2013-02-25 22:31:00,
2013-02-25 15:41:00,23.0,14.0,-100.00,SW,220,8.0,15.0,67,0.00,,,0.00,,2013-02-25 22:41:00,
2013-02-25 15:51:00,23.0,14.0,-100.00,SW,220,8.0,15.0,67,0.00,,,0.00,,2013-02-25 22:51:00,
2013-02-25 16:11:00,23.0,15.0,-100.00,SSW,200,5.0,9.0,74,0.00,,,0.00,,2013-02-25 23:11:00,
2013-02-25 16:22:00,23.0,15.0,-100.00,SSW,200,5.0,9.0,74,0.00,,,0.00,,2013-02-25 23:22:00,
2013-02-25 16:31:00,23.0,15.0,-100.00,SSW,200,5.0,9.0,74,0.00,,,0.00,,2013-02-25 23:31:00,
2013-02-25 16:41:00,23.0,15.0,-100.00,SSW,200,5.0,9.0,74,0.00,,,0.00,,2013-02-25 23:41:00,
2013-02-25 16:51:00,23.0,15.0,-100.00,SSW,200,5.0,9.0,74,0.00,,,0.00,,2013-02-25 23:51:00,
2013-02-25 17:11:00,22.0,17.0,-100.00,SW,220,4.0,8.0,82,0.01,,,0.01,,2013-02-26 00:11:00,
2013-02-25 17:21:00,22.0,17.0,-100.00,SW,220,4.0,8.0,82,0.01,,,0.01,,2013-02-26 00:21:00,
2013-02-25 17:32:00,22.0,17.0,-100.00,SW,220,4.0,8.0,82,0.01,,,0.01,,2013-02-26 00:32:00,
2013-02-25 17:41:00,22.0,17.0,-100.00,SW,220,4.0,8.0,82,0.01,,,0.01,,2013-02-26 00:41:00,
2013-02-25 17:51:00,22.0,17.0,-100.00,SW,220,4.0,8.0,82,0.01,,,0.01,,2013-02-26 00:51:00,
2013-02-25 18:11:00,19.0,16.0,-100.00,West,265,6.0,9.0,86,0.01,,,0.02,,2013-02-26 01:11:00,
2013-02-25 18:21:00,19.0,16.0,-100.00,West,265,6.0,9.0,86,0.01,,,0.02,,2013-02-26 01:21:00,
2013-02-25 18:31:00,19.0,16.0,-100.00,West,265,6.0,9.0,86,0.01,,,0.02,,2013-02-26 01:31:00,
2013-02-25 18:41:00,19.0,16.0,-100.00,West,265,6.0,9.0,86,0.01,,,0.02,,2013-02-26 01:41:00,
2013-02-25 18:51:00,19.0,16.0,-100.00,West,265,6.0,9.0,86,0.01,,,0.02,,2013-02-26 01:51:00,
2013-02-25 19:11:00,18.0,15.0,-100.00,West,270,2.0,5.0,88,0.02,,,0.04,,2013-02-26 02:11:00,
2013-02-25 19:21:00,18.0,15.0,-100.00,West,270,2.0,5.0,88,0.02,,,0.04,,2013-02-26 02:21:00,
2013-02-25 19:32:00,18.0,15.0,-100.00,West,270,2.0,5.0,88,0.02,,,0.04,,2013-02-26 02:32:00,
2013-02-25 19:41:00,18.0,15.0,-100.00,West,270,2.0,5.0,88,0.02,,,0.04,,2013-02-26 02:41:00,
2013-02-25 19:51:00,18.0,15.0,-100.00,West,270,2.0,5.0,88,0.02,,,0.04,,2013-02-26 02:51:00,
2013-02-25 20:11:00,17.0,15.0,-100.00,SW,226,2.0,4.0,90,0.02,,,0.06,,2013-02-26 03:11:00,
2013-02-25 20:21:00,17.0,15.0,-100.00,SW,226,2.0,4.0,90,0.02,,,0.06,,2013-02-26 03:21:00,
2013-02-25 20:31:00,17.0,15.0,-100.00,SW,226,2.0,4.0,90,0.02,,,0.06,,2013-02-26 03:31:00,
2013-02-25 20:41:00,17.0,15.0,-100.00,SW,226,2.0,4.0,90,0.02,,,0.06,,2013-02-26 03:41:00,
2013-02-25 20:51:00,17.0,15.0,-100.00,SW,226,2.0,4.0,90,0.02,,,0.06,,2013-02-26 03:51:00,
2013-02-25 21:21:00,16.0,14.0,-100.00,South,183,1.0,1.0,91,0.01,,,0.07,,2013-02-26 04:21:00,
2013-02-25 21:32:00,16.0,14.0,-100.00,South,183,1.0,1.0,91,0.01,,,0.07,,2013-02-26 04:32:00,
2013-02-25 21:42:00,16.0,14.0,-100.00,South,183,1.0,1.0,91,0.01,,,0.07,,2013-02-26 04:42:00,
2013-02-25 21:51:00,16.0,14.0,-100.00,South,183,1.0,1.0,91,0.01,,,0.07,,2013-02-26 04:51:00,
2013-02-25 22:11:00,16.0,14.0,-100.00,West,260,1.0,1.0,92,0.01,,,0.08,,2013-02-26 05:11:00,
2013-02-25 22:21:00,16.0,14.0,-100.00,West,260,1.0,1.0,92,0.01,,,0.08,,2013-02-26 05:21:00,
2013-02-25 22:31:00,16.0,14.0,-100.00,West,260,1.0,1.0,92,0.01,,,0.08,,2013-02-26 05:31:00,
2013-02-25 22:42:00,16.0,14.0,-100.00,West,260,1.0,1.0,92,0.01,,,0.08,,2013-02-26 05:42:00,
2013-02-25 22:52:00,16.0,14.0,-100.00,West,260,1.0,1.0,92,0.01,,,0.08,,2013-02-26 05:52:00,
2013-02-25 23:21:00,16.0,14.0,-100.00,WSW,254,1.0,2.0,91,0.03,,,0.11,,2013-02-26 06:21:00,
2013-02-25 23:31:00,16.0,14.0,-100.00,WSW,254,1.0,2.0,91,0.03,,,0.11,,2013-02-26 06:31:00,
2013-02-25 23:41:00,16.0,14.0,-100.00,WSW,254,1.0,2.0,91,0.03,,,0.11,,2013-02-26 06:41:00,
2013-02-25 23:51:00,16.0,14.0,-100.00,WSW,254,1.0,2.0,91,0.03,,,0.11,,2013-02-26 06:51:00,